Meteo Giornale » Osservazioni meteo Italia » Cagliari-Elmas

ore: 08:50 - Osservazioni Meteo Cagliari-Elmas
Lat. 39° 15' N Lon. 9° 4' E Alt. 4 metri s.l.m.

nebbia Europe/Rome

4 °C

Banco di Nebbia

Temp. 24 Ore

3 °C

15 °C

Nord/NOvest

11.1 Km/h

Dew point 3 °C

Umidità 93 %

Visibilità  6 Km

Il sole sorge alle ore 07:39

Il sole tramonta alle ore 17:28

Data e Ora Cielo e Fenomeni T °C DP °C Um. % Pres. hPa Vis. km Vento km/h
Oggi h: 08:50 nebbia Banco di Nebbia 4 3 93 1017 6 N/NO 11.1
Oggi h: 08:20 nebbia Banco di Nebbia 3 2 93 1017 4 N 3.7
Oggi h: 07:50 nebbia Banco di Nebbia 3 2 93 1017 5 N 5.5
Oggi h: 07:20 sereno Sereno 4 3 93 1017 8 N/NO 9.3
Oggi h: 06:50 sereno Sereno 3 3 100 1017 7 N/NO 9.3
Oggi h: 06:20 sereno Sereno 4 3 93 1017 6 N/NO 9.3
Oggi h: 05:50 sereno Sereno 4 4 100 1017 6 N/NO 9.3
Oggi h: 05:20 sereno Sereno 4 4 100 1017 6 N/NO 11.1
Oggi h: 04:20 sereno Sereno 4 3 93 1017 6 N/NO 11.1
Oggi h: 03:50 foschia Foschia 4 4 100 1018 5 N/NO 9.3
Oggi h: 03:20 foschia Foschia 4 4 100 1018 5 N/NO 11.1
Oggi h: 02:50 foschia Foschia 5 4 93 1018 5 N 5.5
Oggi h: 02:20 foschia Foschia 5 4 93 1018 5 N 7.4
Oggi h: 01:50 foschia Foschia 5 5 100 1018 5 N 5.5
Oggi h: 01:20 foschia Foschia 6 5 93 1018 5 N 5.5
Oggi h: 00:50 foschia Foschia 6 6 100 1019 5 N/NO 9.3
Oggi h: 00:20 foschia Foschia 7 6 93 1019 5 NO 11.1
Ieri h: 23:50 poco_nuvoloso Poco Nuvoloso 8 7 93 1019 6 O/NO 9.3
Ieri h: 22:50 coperto_pioggia Pioggia Debole 10 8 87 1020 10 O 7.4
Ieri h: 22:20 coperto_pioggia Pioggia 11 8 81 1019 8 N 5.5
Ieri h: 21:50 nuvoloso Nuvoloso 10 7 81 1020 10 NE 7.4
Ieri h: 21:20 poco_nuvoloso Poco Nuvoloso 10 7 81 1020 10 NE 9.3
Ieri h: 20:50 nuvoloso Nuvoloso 10 7 81 1020 10 E/NE 7.4
Ieri h: 20:20 nuvoloso Nuvoloso 10 8 87 1020 10 E/NE 9.3
Ieri h: 19:50 nuvoloso Nuvoloso 11 8 81 1020 10 E 11.1
Ieri h: 19:20 nuvoloso Nuvoloso 12 9 81 1020 10 E/SE 13
Ieri h: 18:50 nuvoloso Nuvoloso 12 9 81 1020 10 SE 11.1
Ieri h: 18:20 poco_nuvoloso Poco Nuvoloso 12 9 81 1020 10 S/SE 11.1
Ieri h: 17:50 nuvoloso Nuvoloso 12 8 76 1020 10 S/SE 11.1
Ieri h: 17:20 poco_nuvoloso Poco Nuvoloso 13 9 76 1020 10 S/SE 11.1
Ieri h: 16:50 nuvoloso Nuvoloso 13 8 71 1020 10 S/SE 11.1
Ieri h: 16:20 nuvoloso Nuvoloso 14 8 67 1020 10 S/SE 13
Ieri h: 15:50 nuvoloso Nuvoloso 14 8 67 1020 10 S/SE 13
Ieri h: 15:20 molto_nuvoloso Molto Nuvoloso 14 8 67 1020 10 S/SE 14.8
Ieri h: 14:50 molto_nuvoloso Molto Nuvoloso 14 8 67 1020 10 S/SE 14.8
Ieri h: 14:20 molto_nuvoloso Molto Nuvoloso 14 8 67 1020 9 S/SE 14.8
Ieri h: 13:50 nuvoloso Rovescio nelle Vicinanze 14 8 67 1020 10 S/SE 11.1
Ieri h: 13:20 coperto_pioggia Pioggia Debole 14 9 71 1021 10 S/SE 11.1
Ieri h: 12:50 nuvoloso Nuvoloso 15 9 67 1021 10 S/SE 9.3
Ieri h: 12:20 nuvoloso Nuvoloso 13 8 71 1022 10 N 3.7
Ieri h: 11:50 molto_nuvoloso Molto Nuvoloso 14 9 71 1022 10 E/SE 7.4
Ieri h: 11:20 molto_nuvoloso Molto Nuvoloso 9 8 93 1023 7 N 5.5
Ieri h: 10:20 molto_nuvoloso Molto Nuvoloso 8 6 87 1023 8 N 5.5
Ieri h: 09:50 nuvoloso Nuvoloso 7 6 93 1023 10 N 5.5
Ieri h: 09:20 molto_nuvoloso Molto Nuvoloso 7 5 87 1022 10 N 3.7
Ieri h: 08:50 molto_nuvoloso Molto Nuvoloso 6 5 93 1022 9 O/NO 7.4